Time;durP1;ratioP1;P1;durP2;ratioP2;P2;SDS_P1;SDS_P2;PMS_P1;PMS_P2;Temp;Humidity;BMP_temperature;BMP_pressure;BME280_temperature;BME280_humidity;BME280_pressure;Samples;Min_cycle;Max_cycle;Signal;HPM_P1;HPM_P2
2023/08/31 00:01:03;;;;;;;3.70;1.95;;;;;;;17.91;79.92;99329.03;4929070;28;20041;-82
2023/08/31 00:03:31;;;;;;;5.85;2.03;;;;;;;17.91;79.98;99335.28;4909636;28;20054;-82
2023/08/31 00:06:01;;;;;;;4.05;2.35;;;;;;;17.91;79.89;99335.28;4926173;28;20055;-82
2023/08/31 00:08:28;;;;;;;2.50;1.83;;;;;;;17.91;80.09;99335.28;4950257;28;20393;-82
2023/08/31 00:10:59;;;;;;;4.38;2.17;;;;;;;17.91;79.97;99335.28;4934146;28;20373;-82
2023/08/31 00:13:27;;;;;;;3.30;2.50;;;;;;;17.93;79.96;99338.56;4940982;28;20070;-81
2023/08/31 00:15:59;;;;;;;4.38;1.95;;;;;;;17.93;80.18;99338.56;4946076;28;20051;-83
2023/08/31 00:18:26;;;;;;;3.83;2.15;;;;;;;17.94;79.97;99337.56;4905557;28;20067;-82
2023/08/31 00:20:53;;;;;;;3.92;2.20;;;;;;;17.94;79.70;99340.25;4945925;28;20047;-83
2023/08/31 00:23:20;;;;;;;5.57;2.08;;;;;;;17.95;79.72;99338.38;4921737;28;20054;-82
2023/08/31 00:25:50;;;;;;;4.68;2.25;;;;;;;17.95;80.26;99341.91;4940562;28;20130;-82
2023/08/31 00:28:18;;;;;;;4.65;2.60;;;;;;;17.96;80.09;99340.88;4952785;28;20043;-82
2023/08/31 00:30:45;;;;;;;2.53;2.00;;;;;;;17.94;80.08;99334.88;4935912;28;20063;-82
2023/08/31 00:33:13;;;;;;;2.60;2.20;;;;;;;17.94;80.52;99334.06;4927818;28;20051;-83
2023/08/31 00:35:46;;;;;;;7.93;2.17;;;;;;;17.92;80.67;99334.22;4908811;28;20047;-82
2023/08/31 00:38:13;;;;;;;3.47;2.28;;;;;;;17.91;80.66;99332.59;4952257;28;20043;-82
2023/08/31 00:40:44;;;;;;;5.00;2.10;;;;;;;17.91;80.77;99337.97;4926054;28;20491;-82
2023/08/31 00:43:12;;;;;;;2.40;2.20;;;;;;;17.91;80.72;99343.34;4935770;28;20048;-82
2023/08/31 00:45:40;;;;;;;4.47;2.28;;;;;;;17.90;80.92;99341.66;4937574;28;20048;-82
2023/08/31 00:48:08;;;;;;;4.70;2.63;;;;;;;17.88;81.13;99334.81;4934680;28;20070;-83
2023/08/31 00:50:35;;;;;;;2.80;2.50;;;;;;;17.89;80.81;99337.31;4922875;28;20110;-82
2023/08/31 00:53:03;;;;;;;4.40;2.83;;;;;;;17.88;80.79;99345.56;4923655;28;20048;-82
2023/08/31 00:55:32;;;;;;;3.50;2.13;;;;;;;17.86;80.90;99337.72;4923341;28;20047;-83
2023/08/31 00:57:59;;;;;;;3.70;2.50;;;;;;;17.85;81.09;99343.28;4923506;28;20889;-82
2023/08/31 01:00:36;;;;;;;4.80;2.47;;;;;;;17.82;81.02;99343.66;4927648;28;20111;-82
2023/08/31 01:03:13;;;;;;;4.40;2.42;;;;;;;17.79;80.99;99343.03;4953463;28;20050;-82
2023/08/31 01:05:53;;;;;;;3.22;2.28;;;;;;;17.74;81.25;99340.06;4910016;28;20083;-82
2023/08/31 01:08:45;;;;;;;3.85;2.38;;;;;;;17.74;80.64;99342.75;4925100;29;20060;-82
2023/08/31 01:11:12;;;;;;;3.72;2.47;;;;;;;17.74;80.35;99353.47;4938056;28;20134;-82
2023/08/31 01:13:41;;;;;;;4.65;2.65;;;;;;;17.75;80.42;99355.13;4938346;28;20043;-82
2023/08/31 01:16:08;;;;;;;3.05;2.30;;;;;;;17.76;80.51;99359.50;4927753;28;20130;-82
2023/08/31 01:18:39;;;;;;;4.47;2.67;;;;;;;17.73;80.49;99357.22;4893415;28;20043;-82
2023/08/31 01:21:17;;;;;;;3.50;2.45;;;;;;;17.69;80.37;99353.25;4926504;28;20047;-82
2023/08/31 01:23:55;;;;;;;4.30;3.45;;;;;;;17.67;79.68;99355.28;4904477;28;20499;-82
2023/08/31 01:26:23;;;;;;;3.13;2.80;;;;;;;17.71;79.54;99356.56;4943346;28;20380;-82
2023/08/31 01:28:51;;;;;;;5.78;3.30;;;;;;;17.72;79.48;99352.03;4926379;28;20047;-82
2023/08/31 01:31:18;;;;;;;7.82;3.78;;;;;;;17.72;79.54;99355.53;4951918;28;20454;-82
2023/08/31 01:33:47;;;;;;;5.00;3.75;;;;;;;17.72;79.91;99360.06;4893724;28;20047;-82
2023/08/31 01:36:18;;;;;;;5.82;3.70;;;;;;;17.71;79.96;99361.13;4919730;28;20047;-82
2023/08/31 01:38:49;;;;;;;5.90;4.32;;;;;;;17.72;80.22;99360.06;4942046;28;20046;-82
2023/08/31 01:41:17;;;;;;;5.75;3.97;;;;;;;17.73;80.65;99356.34;4933480;28;20483;-82
2023/08/31 01:43:44;;;;;;;8.13;4.88;;;;;;;17.73;80.66;99356.34;4943467;28;20138;-82
2023/08/31 01:46:11;;;;;;;8.52;5.45;;;;;;;17.73;80.71;99354.53;4906655;28;20080;-81
2023/08/31 01:48:40;;;;;;;9.63;5.53;;;;;;;17.75;80.89;99359.69;4938208;28;20449;-81
2023/08/31 01:51:07;;;;;;;8.77;5.93;;;;;;;17.74;80.63;99366.91;4944513;28;20542;-82
2023/08/31 01:53:34;;;;;;;7.95;5.90;;;;;;;17.75;80.32;99365.06;4940000;28;20054;-82
2023/08/31 01:56:02;;;;;;;8.88;5.93;;;;;;;17.75;80.55;99370.41;4938496;28;20126;-82
2023/08/31 01:58:29;;;;;;;10.57;6.38;;;;;;;17.75;80.63;99370.41;4924657;28;20063;-83
2023/08/31 02:00:56;;;;;;;8.93;5.82;;;;;;;17.75;80.32;99375.78;4935411;28;20044;-82
2023/08/31 02:03:23;;;;;;;7.10;6.05;;;;;;;17.76;80.42;99380.16;4905970;28;20047;-82
2023/08/31 02:05:50;;;;;;;7.22;5.88;;;;;;;17.75;80.82;99371.25;4925092;28;20542;-82
2023/08/31 02:08:17;;;;;;;7.22;6.20;;;;;;;17.74;80.91;99379.53;4950618;28;20056;-82
2023/08/31 02:10:48;;;;;;;10.00;5.82;;;;;;;17.76;80.61;99380.97;4932590;28;20109;-82
2023/08/31 02:13:22;;;;;;;9.05;6.57;;;;;;;17.74;80.40;99376.84;4892954;28;20050;-82
2023/08/31 02:15:52;;;;;;;10.50;6.95;;;;;;;17.71;80.15;99375.38;4906957;28;20066;-82
2023/08/31 02:18:19;;;;;;;7.95;6.55;;;;;;;17.72;80.61;99377.00;4913261;28;20040;-83
2023/08/31 02:20:46;;;;;;;6.50;5.70;;;;;;;17.73;80.38;99380.53;4920206;28;20511;-82
2023/08/31 02:23:13;;;;;;;8.25;6.13;;;;;;;17.72;80.74;99368.94;4932036;28;20499;-82
2023/08/31 02:25:40;;;;;;;8.70;6.30;;;;;;;17.74;80.57;99387.56;4913816;28;20558;-81
2023/08/31 02:28:07;;;;;;;9.05;6.20;;;;;;;17.75;80.56;99386.53;4924026;28;20039;-83
2023/08/31 02:30:36;;;;;;;9.27;7.13;;;;;;;17.74;80.71;99380.34;4915667;28;20051;-82
2023/08/31 02:33:05;;;;;;;8.55;6.80;;;;;;;17.74;80.57;99384.88;4916845;28;20056;-82
2023/08/31 02:35:33;;;;;;;7.90;7.07;;;;;;;17.74;80.28;99387.56;4951328;28;20118;-83
2023/08/31 02:37:59;;;;;;;8.20;6.18;;;;;;;17.73;80.23;99384.06;4927630;28;20055;-82
2023/08/31 02:40:26;;;;;;;6.97;6.28;;;;;;;17.72;80.00;99384.25;4918180;28;20055;-82
2023/08/31 02:42:53;;;;;;;13.32;7.05;;;;;;;17.71;80.20;99382.59;4941862;28;20084;-82
2023/08/31 02:45:20;;;;;;;8.23;6.18;;;;;;;17.69;79.82;99380.09;4910565;28;20047;-82
2023/08/31 02:47:49;;;;;;;7.80;5.57;;;;;;;17.67;79.91;99384.81;4935835;28;20078;-82
2023/08/31 02:50:16;;;;;;;7.20;6.38;;;;;;;17.65;79.69;99383.34;4934573;28;20054;-82
2023/08/31 02:52:43;;;;;;;9.43;6.00;;;;;;;17.63;79.63;99394.28;4909801;28;20043;-82
2023/08/31 02:55:10;;;;;;;9.20;6.07;;;;;;;17.61;79.66;99396.34;4926459;28;20055;-82
2023/08/31 02:57:37;;;;;;;7.28;5.85;;;;;;;17.57;79.61;99390.50;4924060;28;20573;-82
2023/08/31 03:00:08;;;;;;;8.85;6.07;;;;;;;17.58;79.79;99391.34;4913212;28;20411;-82
2023/08/31 03:02:36;;;;;;;8.53;5.93;;;;;;;17.57;79.76;99393.19;4915243;28;20039;-82
2023/08/31 03:05:03;;;;;;;8.10;6.35;;;;;;;17.56;79.81;99393.41;4896387;28;20047;-82
2023/08/31 03:07:30;;;;;;;8.85;6.07;;;;;;;17.55;79.95;99400.63;4953789;28;20409;-82
2023/08/31 03:09:57;;;;;;;8.82;6.18;;;;;;;17.50;79.77;99399.50;4954332;28;20066;-82
2023/08/31 03:12:24;;;;;;;11.18;6.45;;;;;;;17.52;79.87;99392.94;4906717;28;20071;-83
2023/08/31 03:14:50;;;;;;;7.78;5.60;;;;;;;17.50;80.04;99404.88;4927586;28;20169;-82
2023/08/31 03:17:17;;;;;;;6.97;6.28;;;;;;;17.49;79.75;99405.91;4926404;28;20056;-82
2023/08/31 03:19:44;;;;;;;10.38;6.95;;;;;;;17.46;79.45;99400.94;4929149;28;20151;-82
2023/08/31 03:22:12;;;;;;;7.60;5.60;;;;;;;17.45;79.15;99410.81;4952768;28;20642;-82
2023/08/31 03:24:40;;;;;;;9.80;6.47;;;;;;;17.40;79.12;99402.50;4955993;28;20122;-82
2023/08/31 03:27:07;;;;;;;6.80;6.07;;;;;;;17.40;79.11;99407.06;4955121;28;20047;-82
2023/08/31 03:29:34;;;;;;;11.43;6.10;;;;;;;17.36;79.36;99407.44;4891632;28;20166;-82
2023/08/31 03:32:01;;;;;;;11.07;5.95;;;;;;;17.35;79.41;99413.84;4953099;28;20106;-82
2023/08/31 03:34:30;;;;;;;7.55;5.40;;;;;;;17.32;79.54;99408.00;4917600;28;20067;-82
2023/08/31 03:36:58;;;;;;;11.30;6.22;;;;;;;17.32;79.30;99408.81;4927500;29;20047;-82
2023/08/31 03:39:25;;;;;;;8.38;5.88;;;;;;;17.30;79.04;99410.03;4907932;28;20460;-82
2023/08/31 03:41:52;;;;;;;10.60;6.22;;;;;;;17.26;79.23;99409.59;4925520;28;20050;-82
2023/08/31 03:44:20;;;;;;;7.97;5.88;;;;;;;17.26;79.01;99414.13;4907442;29;20052;-83
2023/08/31 03:46:49;;;;;;;7.53;5.57;;;;;;;17.26;79.01;99414.13;4927786;28;21829;-82
2023/08/31 03:49:16;;;;;;;10.73;6.20;;;;;;;17.25;79.08;99416.00;4907991;28;20390;-82
2023/08/31 03:51:43;;;;;;;7.82;6.15;;;;;;;17.24;78.82;99422.38;4912611;28;20062;-82
2023/08/31 03:54:12;;;;;;;7.45;5.50;;;;;;;17.23;78.75;99427.94;4936963;28;20059;-83
2023/08/31 03:56:39;;;;;;;11.60;6.65;;;;;;;17.19;78.42;99424.78;4929428;28;20051;-82
2023/08/31 03:59:06;;;;;;;6.75;5.38;;;;;;;17.19;78.68;99434.69;4955287;28;20044;-82
2023/08/31 04:01:33;;;;;;;8.13;5.15;;;;;;;17.15;78.51;99431.56;4914322;28;20070;-83
2023/08/31 04:04:00;;;;;;;7.60;5.90;;;;;;;17.14;78.28;99437.94;4933922;28;20106;-82
2023/08/31 04:06:28;;;;;;;8.25;5.95;;;;;;;17.12;78.04;99439.97;4910353;28;20053;-82
2023/08/31 04:08:55;;;;;;;6.43;5.53;;;;;;;17.10;78.04;99448.22;4920923;28;20492;-82
2023/08/31 04:11:22;;;;;;;9.93;5.82;;;;;;;17.09;77.79;99453.75;4911672;28;20079;-82
2023/08/31 04:13:49;;;;;;;5.93;5.38;;;;;;;17.05;77.76;99453.31;4951731;28;20421;-81
2023/08/31 04:16:16;;;;;;;10.40;5.72;;;;;;;17.05;77.72;99453.31;4926902;28;20402;-81
2023/08/31 04:18:45;;;;;;;6.38;5.57;;;;;;;17.03;77.65;99458.03;4909126;28;20044;-81
2023/08/31 04:21:13;;;;;;;7.88;5.15;;;;;;;17.01;77.77;99443.97;4912676;28;20046;-81
2023/08/31 04:23:39;;;;;;;6.80;5.20;;;;;;;17.01;77.85;99448.50;4929813;28;20044;-81
2023/08/31 04:26:11;;;;;;;12.57;5.22;;;;;;;16.98;77.86;99454.25;4937289;28;20060;-81
2023/08/31 04:28:39;;;;;;;7.82;5.57;;;;;;;16.99;77.77;99458.59;4938932;28;20126;-81
2023/08/31 04:31:07;;;;;;;9.02;4.97;;;;;;;16.99;77.77;99455.91;4936372;28;20055;-81
2023/08/31 04:33:34;;;;;;;8.98;5.13;;;;;;;16.98;77.82;99454.25;4935250;28;20059;-81
2023/08/31 04:36:01;;;;;;;5.68;4.97;;;;;;;16.96;78.17;99462.47;4953009;28;20127;-81
2023/08/31 04:38:28;;;;;;;7.35;4.97;;;;;;;16.96;78.34;99467.84;4891828;29;20048;-81
2023/08/31 04:40:58;;;;;;;6.72;4.10;;;;;;;16.94;78.06;99467.19;4936867;28;20135;-81
2023/08/31 04:43:25;;;;;;;6.05;4.93;;;;;;;16.94;78.22;99480.59;4925332;28;20051;-80
2023/08/31 04:45:52;;;;;;;14.20;10.60;;;;;;;16.95;78.36;99478.75;4908820;28;20059;-81
2023/08/31 04:48:19;;;;;;;13.20;8.02;;;;;;;16.93;78.26;99478.94;4927530;28;20679;-81
2023/08/31 04:50:46;;;;;;;8.65;6.80;;;;;;;16.94;78.11;99480.59;4936860;28;20052;-81
2023/08/31 04:53:13;;;;;;;8.50;6.97;;;;;;;16.95;78.24;99484.13;4920448;28;20526;-81
2023/08/31 04:55:40;;;;;;;8.68;6.38;;;;;;;16.93;78.07;99493.16;4919968;28;20115;-80
2023/08/31 04:58:07;;;;;;;7.55;6.47;;;;;;;16.93;78.21;99486.97;4950375;28;20499;-81
2023/08/31 05:00:33;;;;;;;7.07;5.75;;;;;;;16.94;78.37;99483.28;4933338;28;20051;-81
2023/08/31 05:03:00;;;;;;;6.13;5.53;;;;;;;16.95;78.36;99481.44;4954667;28;20520;-81
2023/08/31 05:05:27;;;;;;;7.30;4.55;;;;;;;16.96;78.28;99491.97;4934217;28;20050;-81
2023/08/31 05:07:54;;;;;;;5.78;4.57;;;;;;;16.98;78.58;99492.63;4911654;28;20163;-81
2023/08/31 05:10:21;;;;;;;4.20;3.65;;;;;;;17.00;78.56;99492.44;4925848;28;20048;-81
2023/08/31 05:12:47;;;;;;;6.40;4.00;;;;;;;17.00;78.56;99495.97;4924055;28;20054;-81
2023/08/31 05:15:14;;;;;;;7.28;3.88;;;;;;;17.02;78.60;99501.13;4939966;28;20075;-81
2023/08/31 05:17:41;;;;;;;7.90;3.88;;;;;;;17.03;78.83;99500.13;4942479;28;20409;-81
2023/08/31 05:20:09;;;;;;;8.02;3.80;;;;;;;17.06;79.02;99505.94;4941095;28;20107;-81
2023/08/31 05:22:36;;;;;;;5.80;3.78;;;;;;;17.11;78.87;99508.06;4930772;28;20225;-81
2023/08/31 05:25:04;;;;;;;6.00;3.47;;;;;;;17.11;79.07;99511.56;4948713;28;20464;-81
2023/08/31 05:27:31;;;;;;;4.50;3.83;;;;;;;17.13;79.00;99509.53;4921311;28;20035;-81
2023/08/31 05:29:57;;;;;;;6.05;4.22;;;;;;;17.14;78.96;99511.19;4923112;28;20079;-81
2023/08/31 05:32:28;;;;;;;8.35;3.63;;;;;;;17.17;79.16;99515.34;4935440;28;20039;-81
2023/08/31 05:34:55;;;;;;;7.60;4.22;;;;;;;17.20;79.19;99515.00;4951741;28;20661;-81
2023/08/31 05:37:22;;;;;;;4.55;3.58;;;;;;;17.24;78.86;99518.97;4936860;28;20660;-81
2023/08/31 05:39:49;;;;;;;8.38;4.03;;;;;;;17.28;78.81;99522.94;4951576;28;20039;-81
2023/08/31 05:42:16;;;;;;;6.18;3.90;;;;;;;17.30;78.78;99523.59;4936790;28;20043;-81
2023/08/31 05:44:43;;;;;;;7.85;4.05;;;;;;;17.34;78.88;99527.56;4920415;28;20046;-81
2023/08/31 05:47:10;;;;;;;4.75;3.63;;;;;;;17.38;79.09;99530.72;4932650;28;20039;-81
2023/08/31 05:49:37;;;;;;;8.65;3.67;;;;;;;17.40;79.09;99525.16;4921935;28;20130;-81
2023/08/31 05:52:04;;;;;;;8.27;3.88;;;;;;;17.44;78.65;99527.28;4910842;28;20450;-82
2023/08/31 05:54:31;;;;;;;10.95;4.40;;;;;;;17.47;78.64;99534.94;4951968;28;20043;-81
2023/08/31 05:56:58;;;;;;;5.57;3.92;;;;;;;17.47;78.64;99528.75;4927136;28;20425;-81
2023/08/31 05:59:25;;;;;;;5.78;4.05;;;;;;;17.51;78.67;99536.25;4937050;28;20111;-81
2023/08/31 06:01:52;;;;;;;5.50;3.83;;;;;;;17.53;78.62;99536.91;4937351;28;20070;-81
2023/08/31 06:04:21;;;;;;;7.97;3.95;;;;;;;17.52;78.38;99534.38;4937052;28;20043;-81
2023/08/31 06:06:48;;;;;;;8.52;5.50;;;;;;;17.54;78.53;99537.72;4933714;28;20067;-81
2023/08/31 06:09:16;;;;;;;11.43;5.75;;;;;;;17.50;78.16;99534.59;4939115;28;20059;-81
2023/08/31 06:11:42;;;;;;;9.32;4.00;;;;;;;17.49;78.28;99534.75;4923212;28;20074;-81
2023/08/31 06:14:09;;;;;;;7.72;4.53;;;;;;;17.51;78.45;99541.63;4925309;28;20058;-81
2023/08/31 06:16:36;;;;;;;6.28;4.57;;;;;;;17.51;78.38;99549.66;4936187;28;20487;-81
2023/08/31 06:19:03;;;;;;;7.70;4.97;;;;;;;17.52;78.61;99543.25;4916774;28;20066;-81
2023/08/31 06:21:30;;;;;;;6.68;4.75;;;;;;;17.56;78.61;99543.75;4925136;28;20134;-81
2023/08/31 06:23:56;;;;;;;10.50;4.68;;;;;;;17.60;78.44;99544.19;4918504;29;20044;-81
2023/08/31 06:26:23;;;;;;;8.88;4.60;;;;;;;17.61;78.38;99548.56;4889416;28;20057;-80
2023/08/31 06:28:50;;;;;;;10.82;5.72;;;;;;;17.66;78.35;99548.81;4938437;28;20066;-81
2023/08/31 06:31:17;;;;;;;8.77;5.72;;;;;;;17.67;78.21;99555.84;4923774;28;20503;-81
2023/08/31 06:33:44;;;;;;;8.55;5.35;;;;;;;17.69;78.14;99564.53;4907157;28;20074;-81
2023/08/31 06:36:11;;;;;;;8.95;5.63;;;;;;;17.71;77.78;99554.47;4928259;28;20806;-81
2023/08/31 06:38:38;;;;;;;8.40;5.18;;;;;;;17.74;77.61;99562.13;4949023;28;21099;-81
2023/08/31 06:41:05;;;;;;;7.18;5.45;;;;;;;17.73;77.45;99572.03;4938648;28;20471;-81
2023/08/31 06:43:32;;;;;;;8.60;5.03;;;;;;;17.73;77.59;99565.81;4905664;28;20074;-81
2023/08/31 06:45:58;;;;;;;9.00;5.50;;;;;;;17.73;77.75;99566.66;4950854;28;20463;-81
2023/08/31 06:48:45;;;;;;;8.13;4.78;;;;;;;17.73;77.79;99568.50;4936348;28;20052;-81
2023/08/31 06:51:13;;;;;;;8.57;4.15;;;;;;;17.73;77.68;99566.66;4936771;28;20046;-81
2023/08/31 06:53:39;;;;;;;6.60;5.00;;;;;;;17.76;78.09;99574.34;4922251;28;20071;-81
2023/08/31 06:56:07;;;;;;;6.10;4.15;;;;;;;17.78;78.06;99572.31;4908623;28;20075;-81
2023/08/31 06:58:33;;;;;;;5.85;4.07;;;;;;;17.79;78.09;99574.00;4937656;28;20098;-83
2023/08/31 07:01:01;;;;;;;5.82;4.15;;;;;;;17.83;77.95;99579.81;4932979;28;20438;-83
2023/08/31 07:03:28;;;;;;;8.13;3.70;;;;;;;17.84;76.87;99581.50;4897350;28;20049;-84
2023/08/31 07:05:55;;;;;;;4.95;3.45;;;;;;;17.80;77.10;99577.50;4937044;28;20534;-84
2023/08/31 07:08:21;;;;;;;9.55;4.00;;;;;;;17.81;77.52;99575.66;4951891;28;20050;-83
2023/08/31 07:10:51;;;;;;;5.47;3.15;;;;;;;17.83;77.48;99576.28;4906628;28;20099;-84
2023/08/31 07:13:18;;;;;;;7.35;3.53;;;;;;;17.86;77.30;99579.44;4925484;28;20553;-84
2023/08/31 07:15:45;;;;;;;4.30;3.20;;;;;;;17.86;77.07;99587.50;4941201;28;20043;-84
2023/08/31 07:18:12;;;;;;;6.65;3.10;;;;;;;17.83;76.04;99590.56;4956962;28;20064;-84
2023/08/31 07:20:39;;;;;;;5.40;3.25;;;;;;;17.82;75.97;99583.53;4951468;28;20051;-84
2023/08/31 07:23:06;;;;;;;7.22;3.28;;;;;;;17.85;76.21;99585.00;4938164;28;20053;-84
2023/08/31 07:25:33;;;;;;;3.45;2.42;;;;;;;17.89;76.10;99600.56;4939400;28;20079;-84
2023/08/31 07:27:59;;;;;;;7.38;3.58;;;;;;;17.88;76.11;99593.50;4933113;28;20114;-84
2023/08/31 07:30:26;;;;;;;5.10;2.92;;;;;;;17.89;76.19;99605.09;4942300;28;20654;-84
2023/08/31 07:32:53;;;;;;;7.70;3.20;;;;;;;17.88;75.81;99603.41;4911167;28;20494;-84
2023/08/31 07:35:20;;;;;;;7.57;2.78;;;;;;;17.89;76.25;99610.47;4921239;29;20103;-83
2023/08/31 07:37:46;;;;;;;7.60;2.70;;;;;;;17.90;76.22;99607.59;4924491;28;20380;-82
2023/08/31 07:40:13;;;;;;;7.32;2.25;;;;;;;17.92;75.37;99615.47;4939393;28;20051;-83
2023/08/31 07:42:40;;;;;;;4.43;2.20;;;;;;;17.89;74.71;99622.03;4909602;28;20143;-82
2023/08/31 07:45:07;;;;;;;4.53;2.00;;;;;;;17.88;74.79;99619.53;4910380;28;20079;-83
2023/08/31 07:47:34;;;;;;;4.22;2.10;;;;;;;17.86;74.74;99617.06;4926615;28;20491;-83
2023/08/31 07:50:02;;;;;;;6.20;2.03;;;;;;;17.90;74.51;99620.19;4926639;28;20543;-83
2023/08/31 07:52:29;;;;;;;2.80;1.77;;;;;;;17.90;74.26;99621.00;4922806;28;20479;-82
2023/08/31 07:54:56;;;;;;;3.05;1.63;;;;;;;17.95;74.00;99625.81;4919131;28;20043;-83
2023/08/31 07:57:22;;;;;;;4.07;2.00;;;;;;;17.96;72.84;99630.16;4920051;28;20071;-83
2023/08/31 07:59:49;;;;;;;4.63;1.77;;;;;;;17.98;72.18;99634.31;4950516;28;20062;-83
2023/08/31 08:02:16;;;;;;;3.03;1.83;;;;;;;17.98;72.14;99622.75;4922859;28;20587;-83
2023/08/31 08:04:45;;;;;;;3.22;2.00;;;;;;;17.98;71.66;99634.31;4923390;28;20059;-82
2023/08/31 08:07:12;;;;;;;4.90;1.67;;;;;;;18.04;71.84;99629.22;4950034;28;20196;-82
2023/08/31 08:09:39;;;;;;;5.50;2.15;;;;;;;18.06;71.97;99632.56;4926895;28;20131;-82
2023/08/31 08:12:06;;;;;;;3.60;1.95;;;;;;;18.09;72.01;99630.34;4924342;29;20127;-83
2023/08/31 08:14:33;;;;;;;6.03;2.42;;;;;;;18.13;72.02;99634.28;4911940;28;20452;-82
2023/08/31 08:17:00;;;;;;;4.35;1.52;;;;;;;18.12;71.58;99631.81;4907821;28;20051;-82
2023/08/31 08:19:27;;;;;;;3.83;1.98;;;;;;;18.12;71.11;99637.19;4923446;28;20055;-82
2023/08/31 08:21:54;;;;;;;4.40;1.67;;;;;;;18.11;70.96;99633.66;4934935;28;20078;-81
2023/08/31 08:24:21;;;;;;;3.80;1.70;;;;;;;18.10;70.73;99644.59;4921848;29;20054;-82
2023/08/31 08:26:48;;;;;;;2.58;1.40;;;;;;;18.10;70.50;99650.81;4954130;28;20103;-82
2023/08/31 08:29:14;;;;;;;4.07;1.77;;;;;;;18.09;70.48;99650.97;4951758;28;20071;-82
2023/08/31 08:31:42;;;;;;;5.05;1.67;;;;;;;18.07;70.39;99645.00;4949743;28;20162;-82
2023/08/31 08:34:09;;;;;;;5.43;1.88;;;;;;;18.02;69.28;99647.41;4912313;28;20540;-82
2023/08/31 08:36:36;;;;;;;4.43;1.73;;;;;;;18.03;69.51;99654.44;4939359;28;20036;-82
2023/08/31 08:39:03;;;;;;;3.03;1.40;;;;;;;18.04;69.81;99650.72;4916345;28;20533;-82
2023/08/31 08:41:32;;;;;;;3.83;1.52;;;;;;;18.05;70.02;99647.84;4923940;28;20043;-82
2023/08/31 08:44:03;;;;;;;3.65;1.60;;;;;;;18.02;68.75;99648.25;4927544;28;20135;-82
2023/08/31 08:46:32;;;;;;;5.47;1.80;;;;;;;18.08;68.77;99652.00;4951071;28;20103;-82
2023/08/31 08:49:01;;;;;;;3.60;1.60;;;;;;;18.11;69.14;99646.25;4938683;28;20057;-82
2023/08/31 08:51:28;;;;;;;5.55;1.83;;;;;;;18.07;68.53;99653.06;4927147;28;20063;-81
2023/08/31 08:53:56;;;;;;;4.38;1.75;;;;;;;18.10;69.05;99650.81;4953297;28;20043;-83
2023/08/31 08:56:23;;;;;;;3.58;1.80;;;;;;;18.16;69.32;99655.41;4951778;28;20047;-83
2023/08/31 08:58:49;;;;;;;4.72;1.80;;;;;;;18.12;68.10;99664.06;4937864;28;20047;-83
2023/08/31 09:01:17;;;;;;;2.72;1.50;;;;;;;18.15;68.64;99652.94;4935336;28;20051;-83
2023/08/31 09:03:45;;;;;;;5.93;1.80;;;;;;;18.21;68.68;99668.28;4908275;28;20508;-83
2023/08/31 09:06:12;;;;;;;9.75;2.25;;;;;;;18.25;67.86;99644.56;4923822;28;20104;-84
2023/08/31 09:08:41;;;;;;;3.40;1.50;;;;;;;18.29;67.82;99664.66;4909529;28;20039;-82
2023/08/31 09:11:08;;;;;;;2.95;1.75;;;;;;;18.34;68.22;99646.09;4906750;29;20052;-81
2023/08/31 09:13:34;;;;;;;2.15;1.33;;;;;;;18.38;68.38;99652.78;4909533;28;20100;-81
2023/08/31 09:16:01;;;;;;;4.00;1.65;;;;;;;18.40;66.77;99648.03;4919004;28;20054;-81
2023/08/31 09:18:31;;;;;;;3.20;1.27;;;;;;;18.43;67.00;99661.09;4938963;28;20051;-81
2023/08/31 09:21:05;;;;;;;5.43;1.70;;;;;;;18.42;66.09;99665.63;4906124;28;20519;-82
2023/08/31 09:23:33;;;;;;;2.15;1.40;;;;;;;18.40;66.07;99656.94;4935133;28;20047;-82
2023/08/31 09:26:00;;;;;;;4.03;1.67;;;;;;;18.50;66.05;99663.84;4905663;28;20063;-82
2023/08/31 09:28:28;;;;;;;4.78;1.77;;;;;;;18.54;66.13;99659.75;4917808;28;20051;-82
2023/08/31 09:31:09;;;;;;;3.72;1.50;;;;;;;18.53;65.70;99648.16;4934787;28;20134;-82
2023/08/31 09:33:36;;;;;;;4.82;1.77;;;;;;;18.63;66.02;99662.13;4921547;28;20123;-82
2023/08/31 09:36:07;;;;;;;3.13;1.55;;;;;;;18.65;66.19;99670.00;4919582;29;20122;-82
2023/08/31 09:38:42;;;;;;;2.90;1.50;;;;;;;18.57;64.49;99665.59;4936367;28;20491;-80
2023/08/31 09:41:09;;;;;;;3.28;1.80;;;;;;;18.59;64.78;99662.69;4939428;28;20086;-80
2023/08/31 09:43:35;;;;;;;3.03;1.60;;;;;;;18.61;64.62;99657.97;4923167;28;20046;-80
2023/08/31 09:46:03;;;;;;;3.60;1.60;;;;;;;18.65;64.78;99664.63;4905565;28;20130;-80
2023/08/31 09:48:31;;;;;;;3.67;1.55;;;;;;;18.70;63.21;99664.88;4939479;28;20040;-80
2023/08/31 09:50:58;;;;;;;2.97;1.27;;;;;;;18.70;63.53;99662.19;4913836;28;20134;-80
2023/08/31 09:53:24;;;;;;;4.15;1.67;;;;;;;18.71;62.97;99658.47;4909015;28;20138;-80
2023/08/31 09:55:56;;;;;;;2.47;1.50;;;;;;;18.77;62.28;99651.50;4949132;28;20047;-80
2023/08/31 09:58:23;;;;;;;3.20;1.55;;;;;;;18.78;61.94;99662.09;4910996;28;20815;-81
2023/08/31 10:00:52;;;;;;;3.25;1.75;;;;;;;18.79;61.67;99666.44;4931616;28;20407;-82
2023/08/31 10:03:20;;;;;;;4.50;1.75;;;;;;;18.81;62.17;99663.56;4948102;28;20054;-82
2023/08/31 10:05:49;;;;;;;2.70;1.98;;;;;;;18.81;61.94;99661.69;4909937;28;20074;-80
2023/08/31 10:08:18;;;;;;;2.63;1.85;;;;;;;18.85;61.68;99665.69;4937547;28;20058;-80
2023/08/31 10:10:45;;;;;;;6.63;2.15;;;;;;;18.83;61.18;99678.47;4947709;28;20134;-81
2023/08/31 10:13:13;;;;;;;2.67;1.90;;;;;;;18.83;61.42;99674.97;4906459;28;20495;-82
2023/08/31 10:15:43;;;;;;;4.55;1.90;;;;;;;18.80;60.29;99678.03;4908940;28;20460;-81
2023/08/31 10:18:10;;;;;;;5.30;1.75;;;;;;;18.85;61.67;99672.88;4921270;28;20047;-87
2023/08/31 10:20:37;;;;;;;3.72;1.58;;;;;;;18.97;61.41;99665.97;4950032;28;20149;-87
2023/08/31 10:23:05;;;;;;;4.82;1.75;;;;;;;19.01;61.48;99678.00;4924598;28;20399;-86
2023/08/31 10:25:50;;;;;;;2.67;1.75;;;;;;;18.95;59.05;99676.09;4927775;28;20052;-86
2023/08/31 10:28:25;;;;;;;3.38;1.63;;;;;;;19.04;60.69;99683.00;4922512;28;20049;-86
2023/08/31 10:31:05;;;;;;;3.45;1.75;;;;;;;18.97;60.33;99676.72;4950941;28;20407;-82
2023/08/31 10:33:39;;;;;;;2.63;1.45;;;;;;;18.96;59.17;99675.06;4939727;28;20063;-82
2023/08/31 10:36:10;;;;;;;4.53;2.05;;;;;;;18.91;59.94;99672.13;4918592;28;20043;-80
2023/08/31 10:38:37;;;;;;;2.30;1.80;;;;;;;18.87;60.17;99681.59;4921525;28;20047;-80
2023/08/31 10:41:06;;;;;;;5.97;2.10;;;;;;;18.88;60.73;99672.53;4909683;28;20057;-80
2023/08/31 10:43:49;;;;;;;4.20;1.70;;;;;;;18.81;59.66;99675.16;4928424;28;20551;-80
2023/08/31 10:46:35;;;;;;;;;;;;;;;18.68;59.05;99675.00;4941034;28;20044;-80
2023/08/31 10:49:11;;;;;;;3.97;1.70;;;;;;;18.75;59.71;99670.56;4923335;29;19922;-80
2023/08/31 10:51:46;;;;;;;2.97;1.88;;;;;;;18.87;60.38;99665.47;4926396;28;20465;-80
2023/08/31 10:54:37;;;;;;;4.68;1.77;;;;;;;18.81;60.66;99659.00;4915217;28;20059;-81
2023/08/31 10:57:07;;;;;;;2.78;1.45;;;;;;;18.89;60.79;99646.44;4941927;28;20534;-80
2023/08/31 10:59:47;;;;;;;5.15;1.85;;;;;;;18.89;60.84;99660.72;4948203;28;20060;-80
2023/08/31 11:02:34;;;;;;;4.28;2.30;;;;;;;18.84;58.31;99657.78;4951469;28;20094;-81
2023/08/31 11:05:09;;;;;;;5.03;2.15;;;;;;;18.87;58.57;99649.31;4912100;28;20437;-80
2023/08/31 11:07:37;;;;;;;3.22;1.90;;;;;;;18.89;59.13;99654.53;4940919;28;20059;-81
2023/08/31 11:10:17;;;;;;;4.50;2.17;;;;;;;18.85;58.79;99662.97;4910713;28;20039;-80
2023/08/31 11:12:46;;;;;;;4.00;2.20;;;;;;;18.81;58.74;99656.31;4905573;28;20073;-81
2023/08/31 11:15:14;;;;;;;4.50;1.83;;;;;;;18.78;58.56;99653.19;4919249;28;20044;-81
2023/08/31 11:17:42;;;;;;;3.50;1.80;;;;;;;18.79;58.89;99655.66;4923668;28;20063;-82
2023/08/31 11:20:19;;;;;;;3.22;1.70;;;;;;;18.74;58.49;99649.19;4945040;28;20499;-82
2023/08/31 11:22:49;;;;;;;4.40;1.95;;;;;;;18.78;59.74;99656.72;4912308;28;20126;-82
2023/08/31 11:25:17;;;;;;;3.88;2.03;;;;;;;18.80;60.10;99654.66;4953329;28;20070;-82
2023/08/31 11:27:58;;;;;;;5.03;1.90;;;;;;;18.76;59.41;99650.69;4936319;28;20051;-83
2023/08/31 11:30:32;;;;;;;3.85;1.92;;;;;;;18.81;59.11;99653.63;4936567;28;20044;-81
2023/08/31 11:33:06;;;;;;;4.65;2.08;;;;;;;18.79;59.62;99644.09;4920535;28;20522;-81
2023/08/31 11:35:59;;;;;;;3.20;1.70;;;;;;;18.75;58.06;99645.44;4910207;28;20111;-81
2023/08/31 11:38:26;;;;;;;3.87;1.90;;;;;;;18.83;59.45;99638.13;4941213;28;20047;-83
2023/08/31 11:40:56;;;;;;;2.97;1.70;;;;;;;18.91;59.36;99637.16;4930396;28;22743;-83